createdAt,value
2022-07-26T00:02:49.887Z,5.03
2022-07-26T00:05:51.733Z,4.90
2022-07-26T00:08:53.727Z,5.10
2022-07-26T00:11:55.511Z,4.97
2022-07-26T00:14:57.469Z,4.65
2022-07-26T00:17:59.231Z,4.80
2022-07-26T00:21:01.397Z,5.35
2022-07-26T00:24:04.461Z,5.22
2022-07-26T00:27:06.496Z,5.55
2022-07-26T00:30:09.952Z,5.50
2022-07-26T00:33:11.683Z,5.03
2022-07-26T00:36:13.579Z,5.45
2022-07-26T00:39:15.312Z,5.07
2022-07-26T00:42:17.144Z,5.13
2022-07-26T00:45:19.238Z,5.15
2022-07-26T00:48:21.022Z,5.20
2022-07-26T00:51:23.232Z,5.55
2022-07-26T00:54:25.097Z,5.47
2022-07-26T00:57:26.872Z,6.10
2022-07-26T01:00:29.845Z,5.43
2022-07-26T01:03:38.404Z,5.72
2022-07-26T01:06:42.613Z,5.13
2022-07-26T01:09:44.878Z,5.35
2022-07-26T01:12:46.835Z,6.95
2022-07-26T01:15:49.277Z,5.00
2022-07-26T01:18:51.350Z,5.15
2022-07-26T01:21:53.072Z,3.17
2022-07-26T01:24:54.802Z,3.72
2022-07-26T01:27:56.668Z,3.80
2022-07-26T01:30:58.492Z,2.55
2022-07-26T01:34:00.340Z,3.72
2022-07-26T01:37:03.093Z,3.30
2022-07-26T01:40:05.447Z,3.67
2022-07-26T01:43:09.040Z,3.75
2022-07-26T01:46:11.063Z,3.67
2022-07-26T01:49:12.938Z,3.50
2022-07-26T01:52:14.934Z,3.72
2022-07-26T01:55:16.720Z,3.72
2022-07-26T01:58:19.047Z,1.77
2022-07-26T02:01:39.040Z,3.22
2022-07-26T02:05:00.253Z,2.65
2022-07-26T02:08:02.157Z,2.75
2022-07-26T02:11:04.207Z,3.03
2022-07-26T02:14:06.272Z,2.45
2022-07-26T02:17:08.331Z,2.00
2022-07-26T02:20:10.415Z,2.20
2022-07-26T02:23:13.172Z,2.28
2022-07-26T02:26:14.957Z,1.30
2022-07-26T02:29:16.711Z,1.98
2022-07-26T02:32:18.494Z,1.48
2022-07-26T02:35:20.401Z,2.50
2022-07-26T02:38:22.335Z,1.33
2022-07-26T02:41:26.296Z,2.20
2022-07-26T02:44:29.129Z,1.77
2022-07-26T02:47:32.937Z,2.28
2022-07-26T02:50:35.317Z,1.63
2022-07-26T02:53:37.037Z,1.45
2022-07-26T02:56:39.454Z,2.13
2022-07-26T02:59:41.196Z,0.93
2022-07-26T03:02:43.181Z,1.50
2022-07-26T03:05:45.090Z,1.63
2022-07-26T03:08:48.227Z,1.52
2022-07-26T03:11:49.999Z,1.80
2022-07-26T03:14:51.898Z,0.82
2022-07-26T03:17:53.606Z,0.60
2022-07-26T03:20:55.637Z,1.05
2022-07-26T03:23:57.459Z,0.90
2022-07-26T03:27:02.343Z,0.87
2022-07-26T03:30:05.882Z,1.15
2022-07-26T03:33:07.706Z,1.00
2022-07-26T03:36:11.427Z,1.23
2022-07-26T03:39:13.731Z,1.50
2022-07-26T03:42:16.156Z,1.10
2022-07-26T03:45:18.086Z,1.55
2022-07-26T03:48:20.083Z,1.58
2022-07-26T03:51:21.874Z,1.60
2022-07-26T03:54:23.868Z,1.40
2022-07-26T03:57:25.838Z,1.65
2022-07-26T04:00:30.316Z,1.23
2022-07-26T04:03:32.164Z,1.70
2022-07-26T04:06:33.948Z,1.60
2022-07-26T04:09:36.811Z,1.40
2022-07-26T04:12:38.628Z,1.35
2022-07-26T04:15:40.473Z,1.00
2022-07-26T04:18:42.616Z,1.08
2022-07-26T04:21:44.475Z,1.10
2022-07-26T04:24:46.209Z,0.77
2022-07-26T04:27:47.973Z,0.82
2022-07-26T04:30:49.806Z,1.33
2022-07-26T04:33:52.180Z,1.90
2022-07-26T04:36:54.015Z,0.98
2022-07-26T04:39:55.778Z,1.30
2022-07-26T04:42:57.643Z,0.57
2022-07-26T04:46:00.550Z,0.77
2022-07-26T04:49:02.492Z,1.20
2022-07-26T04:52:04.516Z,1.08
2022-07-26T04:55:07.936Z,1.55
2022-07-26T04:58:10.141Z,1.77
2022-07-26T05:01:12.100Z,0.90
2022-07-26T05:04:14.011Z,1.05
2022-07-26T05:07:15.846Z,1.45
2022-07-26T05:10:18.871Z,1.55
2022-07-26T05:13:23.218Z,1.65
2022-07-26T05:16:32.070Z,1.83
2022-07-26T05:19:33.835Z,1.13
2022-07-26T05:22:36.894Z,1.65
2022-07-26T05:25:39.301Z,1.60
2022-07-26T05:28:41.447Z,1.40
2022-07-26T05:31:43.169Z,2.30
2022-07-26T05:34:44.975Z,1.73
2022-07-26T05:37:47.042Z,1.38
2022-07-26T05:40:50.867Z,1.60
2022-07-26T05:43:52.925Z,1.58
2022-07-26T05:46:54.668Z,1.60
2022-07-26T05:49:56.510Z,1.40
2022-07-26T05:52:58.282Z,1.55
2022-07-26T05:56:00.045Z,1.80
2022-07-26T05:59:01.897Z,1.40
2022-07-26T06:02:03.782Z,1.60
2022-07-26T06:05:05.963Z,1.58
2022-07-26T06:08:07.799Z,1.40
2022-07-26T06:11:09.832Z,1.60
2022-07-26T06:14:12.111Z,1.45
2022-07-26T06:17:16.615Z,1.58
2022-07-26T06:20:18.482Z,1.83
2022-07-26T06:23:33.670Z,1.60
2022-07-26T06:26:36.181Z,1.70
2022-07-26T06:29:38.009Z,1.80
2022-07-26T06:32:41.007Z,2.25
2022-07-26T06:35:45.555Z,1.77
2022-07-26T06:38:48.904Z,1.83
2022-07-26T06:41:52.817Z,1.60
2022-07-26T06:44:56.986Z,1.65
2022-07-26T06:48:01.231Z,0.85
2022-07-26T06:51:03.545Z,1.30
2022-07-26T06:54:05.954Z,1.17
2022-07-26T06:57:07.944Z,1.67
2022-07-26T07:00:13.008Z,1.33
2022-07-26T07:03:14.796Z,1.67
2022-07-26T07:06:16.943Z,1.50
2022-07-26T07:09:18.767Z,1.70
2022-07-26T07:12:21.034Z,1.58
2022-07-26T07:15:22.888Z,1.45
2022-07-26T07:18:24.916Z,1.60
2022-07-26T07:21:27.620Z,1.65
2022-07-26T07:24:29.528Z,1.35
2022-07-26T07:27:33.638Z,1.60
2022-07-26T07:30:35.526Z,0.82
2022-07-26T07:33:52.685Z,1.17
2022-07-26T07:36:55.116Z,1.50
2022-07-26T07:40:06.233Z,1.60
2022-07-26T07:43:08.028Z,1.70
2022-07-26T07:46:09.901Z,2.00
2022-07-26T07:49:12.324Z,1.58
2022-07-26T07:52:14.777Z,1.58
2022-07-26T07:55:36.451Z,1.30
2022-07-26T07:58:39.240Z,1.70
2022-07-26T08:01:41.022Z,1.80
2022-07-26T08:04:43.069Z,1.45
2022-07-26T08:07:44.957Z,1.50
2022-07-26T08:10:51.768Z,1.58
2022-07-26T08:13:54.294Z,1.85
2022-07-26T08:16:57.072Z,1.88
2022-07-26T08:20:00.426Z,1.63
2022-07-26T08:23:02.559Z,1.13
2022-07-26T08:26:06.881Z,1.50
2022-07-26T08:29:09.008Z,1.08
2022-07-26T08:32:10.899Z,0.93
2022-07-26T08:35:17.686Z,1.23
2022-07-26T08:38:21.855Z,1.40
2022-07-26T08:41:24.205Z,1.15
2022-07-26T08:44:26.393Z,0.95
2022-07-26T08:47:37.589Z,1.42
2022-07-26T08:50:41.044Z,1.60
2022-07-26T08:53:43.033Z,0.73
2022-07-26T08:56:52.982Z,1.10
2022-07-26T09:00:14.543Z,1.27
2022-07-26T09:03:26.630Z,1.13
2022-07-26T09:06:28.587Z,0.80
2022-07-26T09:09:31.741Z,1.13
2022-07-26T09:12:33.916Z,1.30
2022-07-26T09:15:35.799Z,1.20
2022-07-26T09:18:37.561Z,1.25
2022-07-26T09:21:40.293Z,1.10
2022-07-26T09:24:46.996Z,1.05
2022-07-26T09:27:49.231Z,1.08
2022-07-26T09:31:05.432Z,1.27
2022-07-26T09:37:12.493Z,0.70
2022-07-26T09:40:16.478Z,0.98
2022-07-26T09:43:19.848Z,0.68
2022-07-26T09:46:27.841Z,1.02
2022-07-26T09:49:40.264Z,0.65
2022-07-26T09:53:10.578Z,1.02
2022-07-26T09:56:13.099Z,1.00
2022-07-26T09:59:17.219Z,1.10
2022-07-26T10:02:18.950Z,0.80
2022-07-26T10:05:21.864Z,0.80
2022-07-26T10:08:23.867Z,1.00
2022-07-26T10:11:26.828Z,0.80
2022-07-26T10:14:46.581Z,1.13
2022-07-26T10:17:49.292Z,1.30
2022-07-26T10:20:51.957Z,1.35
2022-07-26T10:24:01.906Z,1.00
2022-07-26T10:27:04.353Z,1.08
2022-07-26T10:30:18.580Z,0.90
2022-07-26T10:33:25.481Z,1.10
2022-07-26T10:36:29.433Z,1.20
2022-07-26T10:39:31.649Z,1.10
2022-07-26T10:42:44.581Z,1.35
2022-07-26T10:45:46.665Z,1.48
2022-07-26T10:49:04.772Z,1.10
2022-07-26T10:52:21.912Z,1.08
2022-07-26T10:55:26.270Z,1.25
2022-07-26T10:58:28.112Z,1.25
2022-07-26T11:01:34.287Z,1.42
2022-07-26T11:04:37.058Z,1.27
2022-07-26T11:07:55.417Z,1.27
2022-07-26T11:10:57.565Z,1.25
2022-07-26T11:14:11.061Z,1.20
2022-07-26T11:17:26.365Z,1.40
2022-07-26T11:20:30.062Z,1.20
2022-07-26T11:23:34.193Z,1.30
2022-07-26T11:26:43.823Z,1.58
2022-07-26T11:29:49.200Z,1.45
2022-07-26T11:32:53.797Z,1.55
2022-07-26T11:35:55.514Z,1.40
2022-07-26T11:38:57.229Z,1.80
2022-07-26T11:45:12.381Z,1.70
2022-07-26T11:48:14.145Z,1.80
2022-07-26T11:51:21.431Z,2.30
2022-07-26T11:54:25.561Z,2.40
2022-07-26T11:57:31.984Z,1.92
2022-07-26T12:00:34.491Z,1.83
2022-07-26T12:03:40.505Z,2.33
2022-07-26T12:06:42.317Z,1.80
2022-07-26T12:09:51.586Z,2.15
2022-07-26T12:13:12.700Z,1.85
2022-07-26T12:16:14.636Z,1.77
2022-07-26T12:19:16.509Z,2.05
2022-07-26T12:22:20.624Z,1.77
2022-07-26T12:25:29.633Z,2.25
2022-07-26T12:28:41.900Z,2.10
2022-07-26T12:31:43.803Z,2.10
2022-07-26T12:34:56.123Z,2.00
2022-07-26T12:37:58.248Z,2.13
2022-07-26T12:41:00.001Z,1.98
2022-07-26T12:44:03.142Z,2.10
2022-07-26T12:47:05.813Z,1.92
2022-07-26T12:50:10.023Z,2.28
2022-07-26T12:53:12.814Z,2.22
2022-07-26T12:56:14.866Z,1.88
2022-07-26T12:59:17.606Z,1.95
2022-07-26T13:02:20.712Z,2.20
2022-07-26T13:05:23.213Z,2.30
2022-07-26T13:08:24.972Z,1.90
2022-07-26T13:11:26.958Z,2.00
2022-07-26T13:14:28.992Z,2.13
2022-07-26T13:17:31.711Z,1.50
2022-07-26T13:20:33.513Z,2.15
2022-07-26T13:23:35.865Z,2.08
2022-07-26T13:26:37.785Z,1.90
2022-07-26T13:29:39.563Z,1.67
2022-07-26T13:32:41.495Z,3.55
2022-07-26T13:35:43.535Z,3.45
2022-07-26T13:38:45.309Z,3.90
2022-07-26T13:41:47.177Z,2.85
2022-07-26T13:44:48.924Z,3.70
2022-07-26T13:47:50.715Z,3.38
2022-07-26T13:50:54.298Z,3.70
2022-07-26T13:53:56.076Z,4.10
2022-07-26T13:56:59.740Z,4.90
2022-07-26T14:00:01.637Z,4.93
2022-07-26T14:03:03.949Z,5.68
2022-07-26T14:06:05.891Z,5.40
2022-07-26T14:09:10.994Z,5.85
2022-07-26T14:12:14.097Z,6.68
2022-07-26T14:15:21.468Z,5.40
2022-07-26T14:18:24.225Z,6.95
2022-07-26T14:21:28.024Z,6.90
2022-07-26T14:24:29.951Z,8.10
2022-07-26T14:27:31.718Z,7.78
2022-07-26T14:30:33.624Z,7.43
2022-07-26T14:33:35.523Z,7.40
2022-07-26T14:36:38.354Z,6.95
2022-07-26T14:39:40.197Z,4.90
2022-07-26T14:42:42.292Z,8.38
2022-07-26T14:45:48.189Z,7.57
2022-07-26T14:48:54.765Z,2.63
2022-07-26T14:51:56.997Z,6.85
2022-07-26T14:54:58.812Z,8.80
2022-07-26T14:58:00.527Z,8.93
2022-07-26T15:01:02.691Z,9.02
2022-07-26T15:04:05.838Z,7.93
2022-07-26T15:07:07.651Z,6.30
2022-07-26T15:10:11.685Z,7.50
2022-07-26T15:13:14.940Z,9.57
2022-07-26T15:16:16.815Z,7.78
2022-07-26T15:19:23.598Z,6.65
2022-07-26T15:22:27.337Z,6.85
2022-07-26T15:25:29.085Z,6.93
2022-07-26T15:28:30.835Z,7.65
2022-07-26T15:31:37.162Z,7.10
2022-07-26T15:34:39.735Z,6.72
2022-07-26T15:37:43.916Z,7.43
2022-07-26T15:40:45.886Z,7.18
2022-07-26T15:43:49.316Z,8.40
2022-07-26T15:46:51.642Z,5.95
2022-07-26T15:49:53.492Z,5.00
2022-07-26T15:52:55.255Z,3.75
2022-07-26T15:55:57.593Z,3.33
2022-07-26T15:58:59.342Z,4.40
2022-07-26T16:02:01.252Z,3.92
2022-07-26T16:05:04.779Z,4.57
2022-07-26T16:08:06.820Z,4.07
2022-07-26T16:11:08.590Z,3.50
2022-07-26T16:14:10.376Z,4.53
2022-07-26T16:17:12.439Z,3.88
2022-07-26T16:20:15.811Z,4.40
2022-07-26T16:23:17.582Z,4.78
2022-07-26T16:26:23.480Z,4.72
2022-07-26T16:29:25.245Z,5.07
2022-07-26T16:32:27.027Z,4.90
2022-07-26T16:35:28.869Z,5.93
2022-07-26T16:38:30.643Z,4.22
2022-07-26T16:41:32.610Z,5.03
2022-07-26T16:44:36.158Z,5.38
2022-07-26T16:47:38.198Z,4.85
2022-07-26T16:50:40.611Z,5.38
2022-07-26T16:53:42.869Z,5.35
2022-07-26T16:56:44.778Z,6.03
2022-07-26T16:59:46.505Z,4.95
2022-07-26T17:02:48.727Z,5.10
2022-07-26T17:05:50.922Z,5.75
2022-07-26T17:08:53.417Z,5.85
2022-07-26T17:11:55.117Z,4.90
2022-07-26T17:14:57.077Z,5.55
2022-07-26T17:17:59.272Z,5.65
2022-07-26T17:21:01.556Z,5.05
2022-07-26T17:24:05.650Z,5.22
2022-07-26T17:27:07.792Z,4.97
2022-07-26T17:30:10.471Z,4.55
2022-07-26T17:33:12.386Z,5.18
2022-07-26T17:36:40.678Z,5.43
2022-07-26T17:39:51.878Z,5.50
2022-07-26T17:42:54.600Z,5.45
2022-07-26T17:45:56.360Z,5.55
2022-07-26T17:48:58.949Z,5.40
2022-07-26T17:52:00.860Z,5.63
2022-07-26T17:55:02.700Z,5.30
2022-07-26T17:58:04.770Z,5.80
2022-07-26T18:01:07.212Z,5.90
2022-07-26T18:04:09.008Z,5.88
2022-07-26T18:07:11.036Z,5.95
2022-07-26T18:10:14.442Z,5.50
2022-07-26T18:13:16.299Z,4.95
2022-07-26T18:16:18.793Z,4.85
2022-07-26T18:19:20.586Z,5.20
2022-07-26T18:22:23.413Z,5.30
2022-07-26T18:25:25.260Z,5.40
2022-07-26T18:28:27.073Z,5.32
2022-07-26T18:31:28.879Z,5.03
2022-07-26T18:34:30.693Z,5.13
2022-07-26T18:37:32.788Z,5.72
2022-07-26T18:40:34.850Z,5.38
2022-07-26T18:43:36.624Z,5.57
2022-07-26T18:46:38.406Z,5.70
2022-07-26T18:49:40.405Z,5.25
2022-07-26T18:52:42.533Z,5.75
2022-07-26T18:55:44.306Z,5.38
2022-07-26T18:58:46.438Z,5.45
2022-07-26T19:01:48.204Z,6.10
2022-07-26T19:04:50.143Z,5.40
2022-07-26T19:07:52.607Z,5.15
2022-07-26T19:10:54.376Z,5.45
2022-07-26T19:13:56.212Z,5.78
2022-07-26T19:16:57.955Z,6.20
2022-07-26T19:20:00.088Z,5.80
2022-07-26T19:23:01.898Z,6.18
2022-07-26T19:26:03.846Z,5.22
2022-07-26T19:29:05.632Z,5.43
2022-07-26T19:32:07.951Z,5.50
2022-07-26T19:35:10.127Z,5.45
2022-07-26T19:38:12.066Z,6.10
2022-07-26T19:41:16.071Z,5.90
2022-07-26T19:44:18.255Z,5.88
2022-07-26T19:47:20.133Z,5.82
2022-07-26T19:50:21.926Z,5.90
2022-07-26T19:53:23.633Z,4.85
2022-07-26T19:56:25.409Z,5.80
2022-07-26T19:59:27.162Z,5.78
2022-07-26T20:02:29.308Z,5.47
2022-07-26T20:05:31.149Z,5.70
2022-07-26T20:08:33.705Z,5.70
2022-07-26T20:11:35.855Z,5.95
2022-07-26T20:14:37.709Z,5.72
2022-07-26T20:17:41.314Z,5.60
2022-07-26T20:20:43.029Z,5.25
2022-07-26T20:23:45.051Z,5.60
2022-07-26T20:26:46.889Z,5.28
2022-07-26T20:29:48.732Z,5.97
2022-07-26T20:32:50.502Z,5.43
2022-07-26T20:35:55.101Z,6.10
2022-07-26T20:38:59.843Z,5.65
2022-07-26T20:42:02.197Z,5.53
2022-07-26T20:45:06.149Z,5.53
2022-07-26T20:48:13.225Z,6.22
2022-07-26T20:51:15.390Z,5.47
2022-07-26T20:54:17.275Z,6.00
2022-07-26T20:57:22.350Z,6.45
2022-07-26T21:00:25.897Z,6.63
2022-07-26T21:03:27.668Z,6.10
2022-07-26T21:06:29.702Z,6.32
2022-07-26T21:09:31.556Z,6.80
2022-07-26T21:12:33.526Z,5.82
2022-07-26T21:15:35.454Z,5.78
2022-07-26T21:18:38.419Z,6.20
2022-07-26T21:21:40.230Z,6.35
2022-07-26T21:24:45.638Z,6.18
2022-07-26T21:27:50.947Z,5.43
2022-07-26T21:30:52.706Z,4.95
2022-07-26T21:33:54.429Z,5.60
2022-07-26T21:36:57.454Z,5.38
2022-07-26T21:40:00.974Z,5.50
2022-07-26T21:43:03.072Z,5.93
2022-07-26T21:46:07.838Z,6.22
2022-07-26T21:49:14.196Z,5.32
2022-07-26T21:52:18.628Z,5.90
2022-07-26T21:55:20.704Z,5.65
2022-07-26T21:58:25.344Z,6.05
2022-07-26T22:01:32.375Z,5.80
2022-07-26T22:04:34.150Z,5.45
2022-07-26T22:07:35.882Z,6.05
2022-07-26T22:10:44.064Z,5.97
2022-07-26T22:13:46.578Z,5.30
2022-07-26T22:16:49.481Z,5.38
2022-07-26T22:19:51.255Z,6.13
2022-07-26T22:22:53.008Z,6.10
2022-07-26T22:25:54.733Z,6.55
2022-07-26T22:28:58.084Z,5.70
2022-07-26T22:31:59.865Z,5.72
2022-07-26T22:35:01.636Z,6.35
2022-07-26T22:38:09.294Z,6.53
2022-07-26T22:41:11.338Z,6.15
2022-07-26T22:44:13.047Z,6.95
2022-07-26T22:47:14.806Z,5.72
2022-07-26T22:50:16.558Z,5.22
2022-07-26T22:53:19.288Z,5.28
2022-07-26T22:56:21.009Z,5.82
2022-07-26T22:59:25.254Z,5.18
2022-07-26T23:02:27.031Z,5.70
2022-07-26T23:05:45.603Z,5.90
2022-07-26T23:08:49.102Z,5.68
2022-07-26T23:11:50.792Z,5.07
2022-07-26T23:14:52.660Z,5.05
2022-07-26T23:17:54.353Z,5.45
2022-07-26T23:20:56.060Z,5.15
2022-07-26T23:23:57.835Z,5.18
2022-07-26T23:26:59.593Z,5.40
2022-07-26T23:30:01.305Z,5.65
2022-07-26T23:33:03.084Z,5.40
2022-07-26T23:36:05.160Z,5.75
2022-07-26T23:39:06.916Z,5.05
2022-07-26T23:42:08.772Z,4.95
2022-07-26T23:45:10.932Z,5.10
2022-07-26T23:48:12.624Z,5.43
2022-07-26T23:51:14.349Z,4.85
2022-07-26T23:54:16.077Z,4.88
2022-07-26T23:57:17.781Z,5.60
